Accueil
METAR-TAF:

METAR-TAF

Aéroports :

Brenner Field

Falls City, Nebraska, États-Unis

latitude: 40-04-44N, longitude: 095-35-31W, altitude: 300 m

Observation

Le bulletin a été fait il y a 28 minutes, à 00:53 UTC
Vent calme
Température 25°C
Humidité 74%
Pression 1019 hPa
Visibilité: 16.1 km
Ciel clair

METAR: KFNB 220053Z AUTO 00000KT 10SM CLR 25/20 A3008 RMK AO2 SLP178 T02500200

Heure: 20:21 (01:21 UTC)


TAF: absent

Observations et prévisions météorologiques de plus de 4000 aéroports (messages METAR et TAF).

Les stations disponibles sont représentées par des disques jaunes et rouges sur la carte.

Passer la souris dessus pour voir le nom de la station.

Cliquer dessus pour voir les observations et prévisions météorologiques.

Pour changer de carte: cliquez sur les boutons verts avec une croix noire pour zoomer, sur le bouton vert avec un tiret pour effectuer un zoom arrière, ou sur les flèches vertes pour les cartes adjacentes.


METAR-TAF: